Time;durP1;ratioP1;P1;durP2;ratioP2;P2;SDS_P1;SDS_P2;PMS_P1;PMS_P2;Temp;Humidity;BMP_temperature;BMP_pressure;BME280_temperature;BME280_humidity;BME280_pressure;Samples;Min_cycle;Max_cycle;Signal;HPM_P1;HPM_P2
2020/11/12 08:03:49;;;;;;;4.5;1.6;;;;;;;9.67;66.06641;943.2185;;;;
2020/11/12 08:07:18;;;;;;;4.2;1.8;;;;;;;9.6;66.73828;943.1826;;;;
2020/11/12 08:09:43;;;;;;;6.8;1.9;;;;;;;9.52;66.60059;943.1984;;;;
2020/11/12 08:12:08;;;;;;;4.2;1.6;;;;;;;9.12;67.59961;943.1892;;;;
2020/11/12 08:14:33;;;;;;;8.3;1.8;;;;;;;8.68;69.83789;943.1561;;;;
2020/11/12 08:16:58;;;;;;;1.5;1;;;;;;;8.51;70.63965;943.2008;;;;
2020/11/12 08:19:27;;;;;;;6.4;2;;;;;;;8.36;71.6709;943.0759;;;;
2020/11/12 08:21:51;;;;;;;9.9;1.7;;;;;;;8.11;72.2207;943.0467;;;;
2020/11/12 08:24:16;;;;;;;3.2;1.7;;;;;;;8.28;72.62402;943.1666;;;;
2020/11/12 08:26:41;;;;;;;8.4;1.7;;;;;;;8.74;70.88086;943.12;;;;
2020/11/12 08:29:09;;;;;;;3.1;1.2;;;;;;;9.18;69.42871;943.1317;;;;
2020/11/12 08:31:34;;;;;;;3.6;1.5;;;;;;;9.41;68.15723;943.1429;;;;
2020/11/12 08:34:04;;;;;;;2.8;1.1;;;;;;;9.51;67.2832;943.1107;;;;
2020/11/12 08:38:00;;;;;;;3.1;1.6;;;;;;;9.66;67.74121;943.0355;;;;
2020/11/12 08:40:25;;;;;;;2.4;1;;;;;;;9.58;67.45508;943.0225;;;;
2020/11/12 08:42:50;;;;;;;2;1.2;;;;;;;9.41;67.41699;943.0575;;;;
2020/11/12 08:45:16;;;;;;;2.5;1.7;;;;;;;9.25;68.81543;943.0851;;;;
2020/11/12 08:47:42;;;;;;;4.7;1.5;;;;;;;9.18;69.08789;943.0505;;;;
2020/11/12 08:50:11;;;;;;;3.9;1.8;;;;;;;9.19;70.0791;943.0016;;;;
2020/11/12 08:52:39;;;;;;;5.6;1.5;;;;;;;8.95;69.27832;943.0284;;;;
2020/11/12 08:55:05;;;;;;;2.3;1.4;;;;;;;9.02;68.73242;943.0208;;;;
2020/11/12 08:57:30;;;;;;;4.7;1.5;;;;;;;8.89;69.97363;943.0381;;;;
2020/11/12 08:59:55;;;;;;;3;1.6;;;;;;;9.13;69.87695;943.0496;;;;
2020/11/12 09:02:23;;;;;;;4.2;1.7;;;;;;;9.39;70.60059;942.9958;;;;
2020/11/12 09:05:03;;;;;;;4.2;1.7;;;;;;;9.38;70.41895;943.0306;;;;
2020/11/12 09:07:28;;;;;;;6.1;1.9;;;;;;;9.05;72.25195;943.0405;;;;
2020/11/12 09:09:53;;;;;;;5.7;1.8;;;;;;;9.28;72.36035;943.0881;;;;
2020/11/12 09:12:19;;;;;;;2.9;1.9;;;;;;;9.49;72.09766;943.0403;;;;
2020/11/12 09:14:45;;;;;;;3.8;1.8;;;;;;;9.58;71.75977;943.0606;;;;
2020/11/12 09:17:18;;;;;;;3.9;2.1;;;;;;;9.67;71.09082;943.0778;;;;
2020/11/12 09:19:46;;;;;;;3;1.9;;;;;;;9.85;71.33789;943.0578;;;;
2020/11/12 09:22:11;;;;;;;2;1.6;;;;;;;9.99;70.93848;943.1106;;;;
2020/11/12 09:24:36;;;;;;;3.7;2;;;;;;;10.16;70.78418;943.103;;;;
2020/11/12 09:27:06;;;;;;;3.7;1.8;;;;;;;10.3;69.50684;943.0354;;;;
2020/11/12 09:29:30;;;;;;;4.2;1.7;;;;;;;10.38;69.83887;943.0941;;;;
2020/11/12 09:31:55;;;;;;;2.1;1.4;;;;;;;10.37;70.81934;943.0995;;;;
2020/11/12 09:34:20;;;;;;;4.2;2.1;;;;;;;10.36;68.61328;943.1407;;;;
2020/11/12 09:36:46;;;;;;;2.3;1.4;;;;;;;10.5;67.62012;943.1658;;;;
2020/11/12 09:39:11;;;;;;;4.5;1.8;;;;;;;10.45;68.00195;943.1331;;;;
2020/11/12 09:41:38;;;;;;;2.5;1.4;;;;;;;10.47;68.38281;943.1113;;;;
2020/11/12 09:44:03;;;;;;;3.4;1.3;;;;;;;10.52;66.16211;943.1008;;;;
2020/11/12 09:46:28;;;;;;;2.6;1.6;;;;;;;10.65;65.68164;943.0851;;;;
2020/11/12 09:49:01;;;;;;;4;1.6;;;;;;;10.85;64.85352;943.0854;;;;
2020/11/12 09:51:31;;;;;;;5.7;1.9;;;;;;;10.87;65.11914;943.0267;;;;
2020/11/12 09:53:55;;;;;;;1.8;1.1;;;;;;;10.98;65.39844;943.0467;;;;
2020/11/12 09:56:26;;;;;;;3.4;1.8;;;;;;;11.25;66.04492;943.0419;;;;
2020/11/12 09:58:51;;;;;;;2.1;1.3;;;;;;;11.63;66.12598;943.0483;;;;
2020/11/12 10:01:23;;;;;;;1.8;1.3;;;;;;;11.97;65.43457;942.9774;;;;
2020/11/12 10:03:49;;;;;;;3.1;1;;;;;;;12.1;60.67383;943.0206;;;;
2020/11/12 10:06:14;;;;;;;2.8;1.6;;;;;;;12.25;62.97852;942.9683;;;;
2020/11/12 10:08:40;;;;;;;1.4;1;;;;;;;12.45;62.68457;943.0073;;;;
2020/11/12 10:11:05;;;;;;;1;0.7;;;;;;;12.32;58.36621;943.0464;;;;
2020/11/12 10:13:34;;;;;;;1.4;0.9;;;;;;;12.34;59.37793;943.0745;;;;
2020/11/12 10:15:59;;;;;;;13.2;1.1;;;;;;;12.29;57.59375;942.995;;;;
2020/11/12 10:18:27;;;;;;;3.2;1.2;;;;;;;12.4;57.68945;942.9969;;;;
2020/11/12 10:20:59;;;;;;;1.7;0.9;;;;;;;12.48;58.84668;942.9222;;;;
2020/11/12 10:23:30;;;;;;;3;0.9;;;;;;;12.65;59.45508;942.9695;;;;
2020/11/12 10:25:55;;;;;;;5.4;1.2;;;;;;;12.82;57.30859;942.9193;;;;
2020/11/12 10:28:22;;;;;;;1.7;0.8;;;;;;;12.69;55.63965;942.9562;;;;
2020/11/12 10:30:47;;;;;;;1.2;0.8;;;;;;;12.63;56.51563;942.899;;;;
2020/11/12 10:33:15;;;;;;;1.3;0.9;;;;;;;12.86;56.67188;942.9428;;;;
2020/11/12 10:35:44;;;;;;;1.1;0.8;;;;;;;13.02;56.26758;942.9076;;;;
2020/11/12 10:38:09;;;;;;;3.4;1.3;;;;;;;13.09;57.89551;942.8817;;;;
2020/11/12 10:40:35;;;;;;;1.3;0.8;;;;;;;13.19;57.03516;942.9099;;;;
2020/11/12 10:43:00;;;;;;;5.7;1.3;;;;;;;13.07;55.44824;942.896;;;;
2020/11/12 10:45:25;;;;;;;1.3;0.9;;;;;;;12.99;56.25098;942.9102;;;;
2020/11/12 10:47:50;;;;;;;1.2;0.9;;;;;;;13.06;57.30664;942.8951;;;;
2020/11/12 10:50:15;;;;;;;1.2;0.7;;;;;;;13.32;57.08691;942.8647;;;;
2020/11/12 10:52:40;;;;;;;1;0.8;;;;;;;13.51;56.69922;942.8948;;;;
2020/11/12 10:55:05;;;;;;;3.9;1.2;;;;;;;13.66;55.30371;942.7734;;;;
2020/11/12 10:57:30;;;;;;;3.7;0.8;;;;;;;13.69;54.6875;942.748;;;;
2020/11/12 10:59:57;;;;;;;13.9;1.1;;;;;;;13.77;54.46582;942.6724;;;;
2020/11/12 11:02:22;;;;;;;2;1;;;;;;;13.92;54.4043;942.6964;;;;
2020/11/12 11:04:47;;;;;;;4;0.9;;;;;;;13.9;55.16211;942.6892;;;;
2020/11/12 11:07:13;;;;;;;6.2;1;;;;;;;14.03;55.33887;942.5906;;;;
2020/11/12 11:09:38;;;;;;;2.5;1.1;;;;;;;13.99;53.30957;942.5822;;;;
2020/11/12 11:12:03;;;;;;;3.4;1;;;;;;;14.09;54.69141;942.5244;;;;
2020/11/12 11:14:35;;;;;;;1.5;1.1;;;;;;;14.17;56.18652;942.5461;;;;
2020/11/12 11:17:02;;;;;;;2.1;1;;;;;;;14.32;53.6709;942.5211;;;;
2020/11/12 11:19:27;;;;;;;14.6;1.4;;;;;;;14.39;53.26563;942.5212;;;;
2020/11/12 11:21:52;;;;;;;9.6;0.6;;;;;;;14.55;53.79199;942.47;;;;
2020/11/12 11:24:17;;;;;;;2.7;0.6;;;;;;;14.72;53.44336;942.4631;;;;
2020/11/12 11:26:42;;;;;;;2.4;1.2;;;;;;;14.83;54.06934;942.4402;;;;
2020/11/12 11:29:09;;;;;;;2.3;0.8;;;;;;;14.84;53.5166;942.4338;;;;
2020/11/12 11:31:34;;;;;;;2.7;1.1;;;;;;;14.73;54.01074;942.4199;;;;
2020/11/12 11:34:00;;;;;;;2.8;1.5;;;;;;;14.74;53.96484;942.4094;;;;
2020/11/12 11:36:26;;;;;;;1.4;0.9;;;;;;;14.72;53.17871;942.4022;;;;
2020/11/12 11:38:51;;;;;;;1.1;0.7;;;;;;;14.59;53.45117;942.4324;;;;
2020/11/12 11:41:16;;;;;;;1;0.6;;;;;;;14.59;51.66504;942.4115;;;;
2020/11/12 11:43:42;;;;;;;10.3;1.2;;;;;;;14.6;51.16016;942.3762;;;;
2020/11/12 11:46:07;;;;;;;4.6;1.3;;;;;;;14.68;51.58301;942.4063;;;;
2020/11/12 11:48:35;;;;;;;1.2;0.8;;;;;;;14.76;50.87793;942.3469;;;;
2020/11/12 11:51:00;;;;;;;3.7;1.4;;;;;;;15.2;50.69727;942.3301;;;;
2020/11/12 11:53:25;;;;;;;1.8;0.7;;;;;;;15.78;48.88184;942.3563;;;;
2020/11/12 11:55:51;;;;;;;2.1;0.7;;;;;;;16.79;48.82129;942.3495;;;;
2020/11/12 11:58:16;;;;;;;1;0.8;;;;;;;18.06;44.19922;942.2252;;;;
2020/11/12 12:00:44;;;;;;;1.2;0.7;;;;;;;19.61;42.37402;942.2424;;;;
2020/11/12 12:03:09;;;;;;;1.4;1;;;;;;;21.51;37.88477;942.2394;;;;
2020/11/12 12:05:40;;;;;;;1.6;0.7;;;;;;;22.44;35.27734;942.1881;;;;
2020/11/12 12:08:10;;;;;;;3.7;1.2;;;;;;;23.84;31.59961;942.1277;;;;
2020/11/12 12:10:34;;;;;;;1.6;0.9;;;;;;;25.34;29.05957;942.1238;;;;
2020/11/12 12:13:01;;;;;;;0.6;0.4;;;;;;;26.83;26.91797;942.0671;;;;
2020/11/12 12:15:26;;;;;;;4.3;1.1;;;;;;;28.55;25.05859;942.0559;;;;
2020/11/12 12:17:53;;;;;;;0.4;0.3;;;;;;;29.59;23.60254;942.062;;;;
2020/11/12 12:22:20;;;;;;;2.2;0.6;;;;;;;32.3;20.3623;941.9836;;;;
2020/11/12 12:24:45;;;;;;;1.3;0.7;;;;;;;32.67;20.40332;941.9559;;;;
2020/11/12 12:27:12;;;;;;;2.4;0.6;;;;;;;33.4;20.06348;941.9812;;;;
2020/11/12 12:29:37;;;;;;;2;0.6;;;;;;;33.86;18.96484;941.9514;;;;
2020/11/12 12:32:02;;;;;;;2.1;0.9;;;;;;;34.29;18.37988;941.8886;;;;
2020/11/12 12:34:31;;;;;;;1.2;0.7;;;;;;;34.05;18.38184;941.8325;;;;
2020/11/12 12:36:55;;;;;;;3.4;1.2;;;;;;;34.06;18.52734;941.868;;;;
2020/11/12 12:39:20;;;;;;;2.4;0.8;;;;;;;34.1;18.625;941.8166;;;;
2020/11/12 12:41:45;;;;;;;5.3;0.8;;;;;;;33.72;19.05469;941.7942;;;;
2020/11/12 12:44:12;;;;;;;1.9;0.7;;;;;;;33.89;18.42383;941.7748;;;;
2020/11/12 12:46:37;;;;;;;0.2;0.2;;;;;;;33.36;18.42676;941.7556;;;;
2020/11/12 12:49:02;;;;;;;3.9;0.5;;;;;;;33.36;18.36621;941.7319;;;;
2020/11/12 12:51:27;;;;;;;0.2;0.2;;;;;;;32.85;19.10254;941.6864;;;;
2020/11/12 12:53:52;;;;;;;0.2;0.2;;;;;;;33.27;19.02441;941.6724;;;;
2020/11/12 12:56:21;;;;;;;0.4;0.3;;;;;;;33.16;18.86328;941.676;;;;
2020/11/12 12:58:46;;;;;;;1.9;0.5;;;;;;;33.35;18.87109;941.6728;;;;
2020/11/12 13:01:15;;;;;;;1.3;0.6;;;;;;;33.72;18.73047;941.6703;;;;
2020/11/12 13:03:41;;;;;;;2;0.6;;;;;;;33.43;19.03027;941.715;;;;
2020/11/12 13:06:06;;;;;;;1.4;0.5;;;;;;;32.53;19.56934;941.6231;;;;
2020/11/12 13:08:30;;;;;;;2.3;0.6;;;;;;;32.14;20.2959;941.6642;;;;
2020/11/12 13:10:57;;;;;;;1;0.6;;;;;;;31.85;20.42676;941.6619;;;;
2020/11/12 13:13:22;;;;;;;1.1;0.5;;;;;;;31.63;20.91895;941.6083;;;;
2020/11/12 13:15:52;;;;;;;0.4;0.4;;;;;;;31.93;20.74121;941.6458;;;;
2020/11/12 13:18:20;;;;;;;1;0.5;;;;;;;32.34;20.37598;941.6111;;;;
2020/11/12 13:20:45;;;;;;;1.4;0.4;;;;;;;32.49;20.5752;941.5999;;;;
2020/11/12 13:23:12;;;;;;;0.8;0.5;;;;;;;32.27;21.2002;941.584;;;;
2020/11/12 13:25:37;;;;;;;2;0.5;;;;;;;30.99;22.50391;941.5897;;;;
2020/11/12 13:28:03;;;;;;;1.8;0.6;;;;;;;30.65;23.22754;941.5784;;;;
2020/11/12 13:30:28;;;;;;;1.1;0.5;;;;;;;30.52;23.36426;941.5991;;;;
2020/11/12 13:32:55;;;;;;;1.3;0.8;;;;;;;30.56;23.87988;941.6238;;;;
2020/11/12 13:35:18;;;;;;;0.6;0.5;;;;;;;30.23;23.89844;941.5837;;;;
2020/11/12 13:37:43;;;;;;;1;0.5;;;;;;;30.14;23.87012;941.6534;;;;
2020/11/12 13:40:09;;;;;;;1.1;0.9;;;;;;;29.23;24.8584;941.6233;;;;
2020/11/12 13:42:34;;;;;;;0.6;0.5;;;;;;;28.74;25.5332;941.5776;;;;
2020/11/12 13:44:59;;;;;;;0.8;0.5;;;;;;;28.78;25.64258;941.634;;;;
2020/11/12 13:47:26;;;;;;;1.7;0.6;;;;;;;27.49;27.12402;941.6124;;;;
2020/11/12 13:49:51;;;;;;;1.5;0.6;;;;;;;28.17;26.61816;941.6633;;;;
2020/11/12 13:52:17;;;;;;;1.2;0.7;;;;;;;29.36;25.29492;941.6907;;;;
2020/11/12 13:54:42;;;;;;;0.8;0.7;;;;;;;29.88;24.70313;941.6808;;;;
2020/11/12 13:57:08;;;;;;;0.5;0.4;;;;;;;30.15;24.27637;941.6676;;;;
2020/11/12 13:59:33;;;;;;;2.1;0.7;;;;;;;29.29;25.57715;941.7381;;;;
2020/11/12 14:02:00;;;;;;;1.2;0.8;;;;;;;29.67;25.2041;941.7843;;;;
2020/11/12 14:04:26;;;;;;;1.5;0.5;;;;;;;30.25;23.86328;941.7405;;;;
2020/11/12 14:06:51;;;;;;;1.4;0.7;;;;;;;29.58;24.5791;941.7247;;;;
2020/11/12 14:09:16;;;;;;;4.4;0.7;;;;;;;29.27;25.11035;941.7288;;;;
2020/11/12 14:11:41;;;;;;;0.7;0.5;;;;;;;27.66;26.6709;941.7498;;;;
2020/11/12 14:14:07;;;;;;;2.1;0.8;;;;;;;26.85;28.36426;941.7283;;;;
2020/11/12 14:16:33;;;;;;;2.9;1.5;;;;;;;27.38;27.88867;941.7347;;;;
2020/11/12 14:18:58;;;;;;;2.4;1.3;;;;;;;28.11;26.93555;941.781;;;;
2020/11/12 14:21:23;;;;;;;3;1.2;;;;;;;28.67;25.99316;941.825;;;;
2020/11/12 14:23:48;;;;;;;1.7;1.2;;;;;;;28.18;26.36914;941.7706;;;;
2020/11/12 14:26:13;;;;;;;1.3;0.6;;;;;;;28.12;26.8877;941.8627;;;;
2020/11/12 14:28:38;;;;;;;2.6;0.9;;;;;;;28.01;26.71484;941.8998;;;;
2020/11/12 14:31:07;;;;;;;2;1.1;;;;;;;28.26;26.49219;941.8753;;;;
2020/11/12 14:33:32;;;;;;;6.3;2.8;;;;;;;28.07;26.39746;941.9194;;;;
2020/11/12 14:35:58;;;;;;;5.8;1.6;;;;;;;27.38;27.17676;941.8744;;;;
2020/11/12 14:38:22;;;;;;;1.1;0.6;;;;;;;26.53;28.71191;941.9533;;;;
2020/11/12 14:40:49;;;;;;;2.2;0.9;;;;;;;26.18;29.29297;942.019;;;;
2020/11/12 14:43:14;;;;;;;3.2;1.2;;;;;;;25.61;29.94043;941.9926;;;;
2020/11/12 14:45:42;;;;;;;3.3;1.2;;;;;;;24.12;32.38477;941.9899;;;;
2020/11/12 14:48:07;;;;;;;3.9;1.4;;;;;;;22.75;35.47949;942.0212;;;;
2020/11/12 14:50:32;;;;;;;1.2;0.9;;;;;;;21.6;37.3418;942.0847;;;;
2020/11/12 14:52:57;;;;;;;1.7;0.9;;;;;;;20.73;39.3252;942.0913;;;;
2020/11/12 14:55:25;;;;;;;3.5;1.5;;;;;;;19.81;41.54102;942.1008;;;;
2020/11/12 14:57:50;;;;;;;1.2;0.7;;;;;;;19.02;42.93457;942.0503;;;;
2020/11/12 15:00:18;;;;;;;4.5;0.6;;;;;;;18.5;44.24414;942.1292;;;;
2020/11/12 15:02:43;;;;;;;3.1;1;;;;;;;17.84;46.44141;942.147;;;;
2020/11/12 15:05:12;;;;;;;2;0.7;;;;;;;17.29;47.99512;942.2405;;;;
2020/11/12 15:07:40;;;;;;;2.8;0.9;;;;;;;16.63;50.50391;942.2789;;;;
2020/11/12 15:10:05;;;;;;;2.9;1.7;;;;;;;16.34;50.5293;942.3092;;;;
2020/11/12 15:12:30;;;;;;;3.4;1.3;;;;;;;16.1;51.31152;942.3055;;;;
2020/11/12 15:14:57;;;;;;;1.6;1.2;;;;;;;15.65;53.8584;942.3487;;;;
2020/11/12 15:17:22;;;;;;;0.8;0.5;;;;;;;14.84;56.06543;942.3809;;;;
2020/11/12 15:19:48;;;;;;;5.6;0.7;;;;;;;14.68;56.7832;942.407;;;;
2020/11/12 15:22:13;;;;;;;0.7;0.6;;;;;;;14.63;57.01758;942.3901;;;;
2020/11/12 15:24:39;;;;;;;2.2;1.1;;;;;;;14.43;57.82129;942.3638;;;;
2020/11/12 15:27:11;;;;;;;4.9;1.5;;;;;;;14.41;58.35938;942.4476;;;;
2020/11/12 15:29:29;;;;;;;1.5;1.2;;;;;;;14.35;58.48926;942.4186;;;;
2020/11/12 15:31:57;;;;;;;1;0.8;;;;;;;14.2;58.97656;942.4308;;;;
2020/11/12 15:34:23;;;;;;;1.5;0.9;;;;;;;14.13;58.85156;942.4587;;;;
2020/11/12 15:36:48;;;;;;;1.2;0.8;;;;;;;14.06;58.7041;942.3914;;;;
2020/11/12 15:39:13;;;;;;;3;1.4;;;;;;;13.98;59.82031;942.4517;;;;
2020/11/12 15:41:39;;;;;;;3.7;1.9;;;;;;;13.8;60.74023;942.4875;;;;
2020/11/12 15:44:04;;;;;;;6.8;2.1;;;;;;;13.65;61.59277;942.4526;;;;
2020/11/12 15:46:32;;;;;;;3.5;1.6;;;;;;;13.39;61.98145;942.4899;;;;
2020/11/12 15:48:57;;;;;;;6.9;1.7;;;;;;;13.26;62.36523;942.5652;;;;
2020/11/12 15:51:26;;;;;;;3.8;1.5;;;;;;;13.27;62.91797;942.5996;;;;
2020/11/12 15:53:47;;;;;;;1.6;1.2;;;;;;;13.25;61.24902;942.5308;;;;
2020/11/12 15:56:13;;;;;;;4.6;1.9;;;;;;;13.19;61.67871;942.6628;;;;
2020/11/12 15:58:38;;;;;;;3.1;1.8;;;;;;;13.17;62.17871;942.6472;;;;
2020/11/12 16:01:06;;;;;;;3.8;1.9;;;;;;;13.13;61.83008;942.6556;;;;
2020/11/12 16:03:31;;;;;;;3.8;1.7;;;;;;;13.09;61.46777;942.7738;;;;
2020/11/12 16:05:56;;;;;;;4.9;1.5;;;;;;;13.12;61.73535;942.8067;;;;
2020/11/12 16:08:21;;;;;;;3.3;1.5;;;;;;;13.12;62.1377;942.79;;;;
2020/11/12 16:10:49;;;;;;;4.9;2;;;;;;;13.11;63.18164;942.8091;;;;
2020/11/12 16:13:14;;;;;;;3.2;1.7;;;;;;;13.1;63.70996;942.8219;;;;
2020/11/12 16:15:42;;;;;;;5.1;2.3;;;;;;;13.08;64.86621;942.8529;;;;
2020/11/12 16:18:13;;;;;;;3.8;1.3;;;;;;;12.89;65.9043;942.8879;;;;
2020/11/12 16:20:36;;;;;;;1.9;1.2;;;;;;;12.74;66.26172;942.8968;;;;
2020/11/12 16:23:01;;;;;;;2.2;1.3;;;;;;;12.62;66.4375;942.8917;;;;
2020/11/12 16:25:27;;;;;;;1.6;1.2;;;;;;;12.58;66.77637;942.9902;;;;
2020/11/12 16:27:55;;;;;;;3.8;1.9;;;;;;;12.49;67.17578;943.0197;;;;
2020/11/12 16:30:20;;;;;;;5.2;2.2;;;;;;;12.38;67.04395;942.9672;;;;
2020/11/12 16:32:47;;;;;;;5.1;2.7;;;;;;;12.36;67.47559;942.9517;;;;
2020/11/12 16:35:14;;;;;;;5.3;1.8;;;;;;;12.41;67.10547;942.9778;;;;
2020/11/12 16:37:40;;;;;;;7;2.6;;;;;;;12.46;66.4248;943.0856;;;;
2020/11/12 16:40:05;;;;;;;4.3;1.6;;;;;;;12.46;66.22949;943.0833;;;;
2020/11/12 16:42:37;;;;;;;5.9;2.7;;;;;;;12.45;65.11621;943.1127;;;;
2020/11/12 16:45:02;;;;;;;9.1;3.1;;;;;;;12.42;65.55859;943.0973;;;;
2020/11/12 16:47:28;;;;;;;4.8;2.7;;;;;;;12.37;65.84863;943.1931;;;;
2020/11/12 16:49:55;;;;;;;13.1;4.3;;;;;;;12.37;65.27539;943.1923;;;;
2020/11/12 16:52:21;;;;;;;6.6;3.6;;;;;;;12.18;65.03027;943.2067;;;;
2020/11/12 16:54:47;;;;;;;9.7;4.2;;;;;;;12.18;65.36328;943.2139;;;;
2020/11/12 16:57:12;;;;;;;12.1;5;;;;;;;12.11;65.67285;943.2004;;;;
2020/11/12 16:59:38;;;;;;;9.3;4.7;;;;;;;12.11;65.6377;943.2618;;;;
2020/11/12 17:02:03;;;;;;;8.2;5;;;;;;;12.08;66.32227;943.1777;;;;
2020/11/12 17:04:30;;;;;;;17.1;6.4;;;;;;;12.05;67.2793;943.2587;;;;
2020/11/12 17:06:55;;;;;;;13.4;5.7;;;;;;;12.02;67.75586;943.2392;;;;
2020/11/12 17:09:20;;;;;;;6.5;4.2;;;;;;;11.94;68.13184;943.3161;;;;
2020/11/12 17:11:45;;;;;;;6.9;3.9;;;;;;;11.87;68.53418;943.3361;;;;
2020/11/12 17:14:10;;;;;;;7.2;4;;;;;;;11.88;68.64941;943.3522;;;;
2020/11/12 17:16:37;;;;;;;7;2.9;;;;;;;11.83;68.82422;943.3251;;;;
2020/11/12 17:19:02;;;;;;;8.2;3.4;;;;;;;11.67;69.06348;943.325;;;;
2020/11/12 17:21:27;;;;;;;3.4;2.4;;;;;;;11.69;69.04297;943.2925;;;;
2020/11/12 17:23:55;;;;;;;10.5;4;;;;;;;11.71;69.12598;943.2983;;;;
2020/11/12 17:26:20;;;;;;;12.3;5.1;;;;;;;11.7;68.96484;943.3261;;;;
2020/11/12 17:28:48;;;;;;;10.2;4.4;;;;;;;11.71;68.81738;943.3613;;;;
2020/11/12 17:31:12;;;;;;;5.5;3.2;;;;;;;11.68;68.92773;943.3522;;;;
2020/11/12 17:33:40;;;;;;;6.8;3.4;;;;;;;11.66;68.94629;943.3583;;;;
2020/11/12 17:36:05;;;;;;;13.3;5.3;;;;;;;11.61;69.19043;943.3701;;;;
2020/11/12 17:38:33;;;;;;;12.4;5.4;;;;;;;11.52;69.64551;943.3242;;;;
2020/11/12 17:41:00;;;;;;;29.6;10.6;;;;;;;11.33;70.49414;943.3722;;;;
2020/11/12 17:43:25;;;;;;;17.3;6.2;;;;;;;11.23;70.65234;943.3964;;;;
2020/11/12 17:45:53;;;;;;;21.4;7.7;;;;;;;11.08;71.3916;943.3076;;;;
2020/11/12 17:48:19;;;;;;;17;6.1;;;;;;;10.98;71.64941;943.4189;;;;
2020/11/12 17:50:45;;;;;;;16.5;7.6;;;;;;;10.91;72.09668;943.4481;;;;
2020/11/12 17:53:11;;;;;;;15.1;6.8;;;;;;;10.82;71.97852;943.4785;;;;
2020/11/12 17:55:36;;;;;;;19.2;6.3;;;;;;;10.79;71.89453;943.4961;;;;
2020/11/12 17:58:07;;;;;;;10.2;4.8;;;;;;;10.74;72.47949;943.5165;;;;
2020/11/12 18:00:34;;;;;;;14.4;6.2;;;;;;;10.64;72.79199;943.5173;;;;
2020/11/12 18:03:08;;;;;;;10.2;5.6;;;;;;;10.57;72.74609;943.5189;;;;
2020/11/12 18:05:25;;;;;;;10.6;4.9;;;;;;;10.51;72.61133;943.5394;;;;
2020/11/12 18:07:50;;;;;;;11.3;5.5;;;;;;;10.48;73.09766;943.5374;;;;
2020/11/12 18:10:21;;;;;;;15.8;5.2;;;;;;;10.39;73.45703;943.5114;;;;
2020/11/12 18:12:48;;;;;;;11.6;5.1;;;;;;;10.3;73.36328;943.5248;;;;
2020/11/12 18:15:19;;;;;;;12.7;5.5;;;;;;;10.27;73.78125;943.6096;;;;
2020/11/12 18:17:42;;;;;;;14.2;5.6;;;;;;;10.15;74.20605;943.6472;;;;
2020/11/12 18:20:16;;;;;;;11.5;5.5;;;;;;;10.11;74.19824;943.617;;;;
2020/11/12 18:22:43;;;;;;;8.8;4.7;;;;;;;10.08;74.49023;943.61;;;;
2020/11/12 18:25:08;;;;;;;7.1;3.5;;;;;;;9.95;75.12793;943.6899;;;;
2020/11/12 18:27:33;;;;;;;9.3;3.9;;;;;;;9.78;75.88477;943.6509;;;;
2020/11/12 18:29:58;;;;;;;5.5;3.5;;;;;;;9.73;75.68262;943.6135;;;;
2020/11/12 18:32:24;;;;;;;11.4;4.7;;;;;;;9.64;75.73535;943.6186;;;;
2020/11/12 18:34:53;;;;;;;11;4.1;;;;;;;9.48;76.82324;943.6252;;;;
2020/11/12 18:37:18;;;;;;;9.6;4.5;;;;;;;9.42;76.8252;943.6378;;;;
2020/11/12 18:39:46;;;;;;;12.9;5.3;;;;;;;9.41;76.57324;943.6429;;;;
2020/11/12 18:42:17;;;;;;;9.9;3.7;;;;;;;9.42;76.32422;943.6741;;;;
2020/11/12 18:44:39;;;;;;;7.8;3.3;;;;;;;9.39;76.31738;943.685;;;;
2020/11/12 18:47:10;;;;;;;6.2;3.7;;;;;;;9.35;76.25391;943.5911;;;;
2020/11/12 18:49:36;;;;;;;8.2;3.3;;;;;;;9.24;76.59766;943.6537;;;;
2020/11/12 18:51:59;;;;;;;7.6;3.6;;;;;;;9.12;77.11328;943.592;;;;
2020/11/12 18:54:25;;;;;;;6.5;2.5;;;;;;;9.07;77.61719;943.5804;;;;
2020/11/12 18:56:50;;;;;;;13;6.3;;;;;;;8.97;78.35059;943.6755;;;;
2020/11/12 18:59:15;;;;;;;14.4;9.1;;;;;;;8.97;78.31445;943.6811;;;;
2020/11/12 19:01:44;;;;;;;10;6.4;;;;;;;8.97;77.97461;943.6342;;;;
2020/11/12 19:04:09;;;;;;;12.5;6.7;;;;;;;8.9;77.97168;943.6617;;;;
2020/11/12 19:06:36;;;;;;;11;5.9;;;;;;;8.81;78.54492;943.6204;;;;
2020/11/12 19:09:01;;;;;;;18.3;7.8;;;;;;;8.7;78.98145;943.5717;;;;
2020/11/12 19:11:26;;;;;;;13.3;7.3;;;;;;;8.64;78.77637;943.6248;;;;
2020/11/12 19:13:52;;;;;;;16.1;7.1;;;;;;;8.64;78.40332;943.6091;;;;
2020/11/12 19:16:18;;;;;;;12.2;6.2;;;;;;;8.67;78.51074;943.6241;;;;
2020/11/12 19:18:46;;;;;;;15.8;7.2;;;;;;;8.63;78.31836;943.6532;;;;
2020/11/12 19:21:11;;;;;;;19.4;7.6;;;;;;;8.47;78.61035;943.622;;;;
2020/11/12 19:23:40;;;;;;;27;12.2;;;;;;;8.29;79.40527;943.6261;;;;
2020/11/12 19:26:05;;;;;;;12.9;6.2;;;;;;;8.1;80.35938;943.6295;;;;
2020/11/12 19:28:31;;;;;;;12;5.7;;;;;;;8.01;80.64746;943.5592;;;;
2020/11/12 19:31:00;;;;;;;14.5;5.8;;;;;;;7.86;81.04004;943.6188;;;;
2020/11/12 19:33:25;;;;;;;14.3;6.3;;;;;;;7.72;81.60254;943.6358;;;;
2020/11/12 19:35:51;;;;;;;8.2;4.8;;;;;;;7.71;81.64648;943.6608;;;;
2020/11/12 19:38:16;;;;;;;19.2;11.1;;;;;;;7.76;81.33887;943.6964;;;;
2020/11/12 19:40:41;;;;;;;14.9;7.6;;;;;;;7.76;81.31641;943.6853;;;;
2020/11/12 19:43:10;;;;;;;48;22.2;;;;;;;7.79;81.08301;943.6624;;;;
2020/11/12 19:45:43;;;;;;;9.6;4.9;;;;;;;7.86;80.37109;943.651;;;;
2020/11/12 19:48:09;;;;;;;15.6;7.2;;;;;;;7.91;79.9043;943.7216;;;;
2020/11/12 19:50:34;;;;;;;20;7;;;;;;;7.87;79.97363;943.7575;;;;
2020/11/12 19:53:00;;;;;;;13.6;6.5;;;;;;;7.76;80.41895;943.8033;;;;
2020/11/12 19:55:27;;;;;;;8.9;4.6;;;;;;;7.72;80.50391;943.7595;;;;
2020/11/12 19:57:52;;;;;;;7.3;4;;;;;;;7.72;80.41309;943.7484;;;;
2020/11/12 20:00:20;;;;;;;7.1;3.5;;;;;;;7.75;80.2373;943.7175;;;;
2020/11/12 20:02:45;;;;;;;6.2;3.4;;;;;;;7.71;80.01465;943.829;;;;
2020/11/12 20:05:11;;;;;;;10.1;3.9;;;;;;;7.7;79.70703;943.747;;;;
2020/11/12 20:07:37;;;;;;;5.8;3.2;;;;;;;7.59;80.16113;943.772;;;;
2020/11/12 20:10:03;;;;;;;6.8;3.8;;;;;;;7.39;81.06543;943.8251;;;;
2020/11/12 20:12:31;;;;;;;6.8;3.2;;;;;;;7.25;81.95508;943.8153;;;;
2020/11/12 20:14:56;;;;;;;3.6;2.2;;;;;;;7.3;81.7959;943.8567;;;;
2020/11/12 20:17:22;;;;;;;11.4;2.7;;;;;;;7.25;81.71777;943.8416;;;;
2020/11/12 20:19:47;;;;;;;5;2;;;;;;;7.32;81.47266;943.8833;;;;
2020/11/12 20:22:13;;;;;;;3.5;2;;;;;;;7.38;80.93848;943.8764;;;;
2020/11/12 20:24:38;;;;;;;3.9;2.1;;;;;;;7.42;80.33496;943.8535;;;;
2020/11/12 20:27:05;;;;;;;4.7;2.1;;;;;;;7.48;79.96973;943.8599;;;;
2020/11/12 20:29:30;;;;;;;6.2;3.1;;;;;;;7.5;79.57715;943.8517;;;;
2020/11/12 20:31:58;;;;;;;7.2;2.6;;;;;;;7.38;80.02051;943.8947;;;;
2020/11/12 20:34:23;;;;;;;6.3;2;;;;;;;7.31;80.73242;943.8226;;;;
2020/11/12 20:36:48;;;;;;;5.7;3.7;;;;;;;7.19;81.18652;943.8369;;;;
2020/11/12 20:39:14;;;;;;;6.6;4.5;;;;;;;7.14;81.34766;943.7968;;;;
2020/11/12 20:41:42;;;;;;;5.8;2.9;;;;;;;7.11;81.97461;943.8178;;;;
2020/11/12 20:44:09;;;;;;;6.4;3.6;;;;;;;7.07;82.22656;943.7992;;;;
2020/11/12 20:46:35;;;;;;;9.8;3.8;;;;;;;7.01;82.2959;943.8116;;;;
2020/11/12 20:49:00;;;;;;;7.6;3.6;;;;;;;6.95;82.15723;943.7634;;;;
2020/11/12 20:51:25;;;;;;;5.6;3.2;;;;;;;6.85;82.27539;943.7999;;;;
2020/11/12 20:53:50;;;;;;;5.8;3;;;;;;;6.83;82.30762;943.8025;;;;
2020/11/12 20:56:16;;;;;;;4.6;2.8;;;;;;;6.72;82.49902;943.7715;;;;
2020/11/12 20:58:41;;;;;;;10;5.5;;;;;;;6.65;83.13379;943.7371;;;;
2020/11/12 21:01:06;;;;;;;9.2;3;;;;;;;6.53;83.73145;943.8251;;;;
2020/11/12 21:03:34;;;;;;;5.7;3;;;;;;;6.57;83.76074;943.8203;;;;
2020/11/12 21:05:59;;;;;;;8.4;4;;;;;;;6.53;83.86719;943.8078;;;;
2020/11/12 21:08:27;;;;;;;10.4;4;;;;;;;6.57;83.55664;943.8312;;;;
2020/11/12 21:10:52;;;;;;;7.7;4.9;;;;;;;6.6;83.23633;943.8434;;;;
2020/11/12 21:13:18;;;;;;;11;4.8;;;;;;;6.47;83.83203;943.8295;;;;
2020/11/12 21:15:48;;;;;;;10.3;4.2;;;;;;;6.5;83.80273;943.8296;;;;
2020/11/12 21:18:14;;;;;;;9.8;4.8;;;;;;;6.36;84.07031;943.866;;;;
2020/11/12 21:20:39;;;;;;;16;6.1;;;;;;;6.36;83.94434;943.8627;;;;
2020/11/12 21:23:06;;;;;;;12.5;4.9;;;;;;;6.26;84.04004;943.8372;;;;
2020/11/12 21:25:31;;;;;;;10.8;5.1;;;;;;;;;;;;;
2020/11/12 21:27:56;;;;;;;12.7;5.9;;;;;;;;;;;;;
2020/11/12 21:30:21;;;;;;;9;4.3;;;;;;;;;;;;;
2020/11/12 21:32:48;;;;;;;14.7;6.1;;;;;;;;;;;;;
2020/11/12 21:35:13;;;;;;;10.2;5.7;;;;;;;;;;;;;
2020/11/12 21:37:38;;;;;;;14;5.8;;;;;;;;;;;;;
2020/11/12 21:40:03;;;;;;;15.5;5.5;;;;;;;;;;;;;
2020/11/12 21:42:30;;;;;;;8.7;4.7;;;;;;;;;;;;;
2020/11/12 21:44:55;;;;;;;10.1;4.9;;;;;;;;;;;;;
2020/11/12 21:47:21;;;;;;;8.4;4.1;;;;;;;;;;;;;
2020/11/12 21:49:46;;;;;;;10.2;3.5;;;;;;;;;;;;;
2020/11/12 21:52:15;;;;;;;7.5;3.3;;;;;;;;;;;;;
2020/11/12 21:54:40;;;;;;;8.4;4.3;;;;;;;;;;;;;
2020/11/12 21:57:06;;;;;;;8.6;3;;;;;;;;;;;;;
2020/11/12 21:59:31;;;;;;;7.1;3.2;;;;;;;;;;;;;
2020/11/12 22:02:01;;;;;;;11.4;4.6;;;;;;;;;;;;;
2020/11/12 22:04:26;;;;;;;11;5.2;;;;;;;;;;;;;
2020/11/12 22:06:51;;;;;;;5.8;3;;;;;;;;;;;;;
2020/11/12 22:09:17;;;;;;;3.4;2.4;;;;;;;;;;;;;
2020/11/12 22:11:42;;;;;;;3.9;2.6;;;;;;;;;;;;;
2020/11/12 22:14:07;;;;;;;3.5;2.5;;;;;;;;;;;;;
2020/11/12 22:16:33;;;;;;;5.5;2.5;;;;;;;;;;;;;
2020/11/12 22:18:59;;;;;;;7.1;2.7;;;;;;;;;;;;;
2020/11/12 22:21:24;;;;;;;11.4;3.2;;;;;;;;;;;;;
2020/11/12 22:23:50;;;;;;;6.9;2.9;;;;;;;;;;;;;
2020/11/12 22:26:15;;;;;;;3.5;2.4;;;;;;;;;;;;;
2020/11/12 22:28:40;;;;;;;5.7;2.8;;;;;;;;;;;;;
2020/11/12 22:31:05;;;;;;;5.1;2.5;;;;;;;;;;;;;
2020/11/12 22:33:31;;;;;;;5.3;1.9;;;;;;;;;;;;;
2020/11/12 22:35:56;;;;;;;6.4;2.9;;;;;;;;;;;;;
2020/11/12 22:38:21;;;;;;;3.9;1.8;;;;;;;;;;;;;
2020/11/12 22:40:48;;;;;;;5.6;2.7;;;;;;;;;;;;;
2020/11/12 22:43:13;;;;;;;9.2;3.1;;;;;;;;;;;;;
2020/11/12 22:45:44;;;;;;;7;2.9;;;;;;;;;;;;;
2020/11/12 22:48:10;;;;;;;9.9;3.9;;;;;;;;;;;;;
2020/11/12 22:50:35;;;;;;;4.4;2.7;;;;;;;;;;;;;
2020/11/12 22:53:00;;;;;;;8.1;3.4;;;;;;;;;;;;;
2020/11/12 22:55:25;;;;;;;4.2;2.7;;;;;;;;;;;;;